createdAt,value
2019-02-20T00:00:08.362Z,7.10
2019-02-20T00:02:49.609Z,7.10
2019-02-20T00:05:30.494Z,7.10
2019-02-20T00:08:11.411Z,7.00
2019-02-20T00:10:51.994Z,7.00
2019-02-20T00:13:32.538Z,7.00
2019-02-20T00:16:13.122Z,6.90
2019-02-20T00:18:53.791Z,6.90
2019-02-20T00:21:34.850Z,6.80
2019-02-20T00:24:15.288Z,6.80
2019-02-20T00:26:55.738Z,6.70
2019-02-20T00:29:36.334Z,6.80
2019-02-20T00:32:17.098Z,6.70
2019-02-20T00:34:57.743Z,6.70
2019-02-20T00:37:38.658Z,6.70
2019-02-20T00:40:19.071Z,6.70
2019-02-20T00:42:59.847Z,6.70
2019-02-20T00:48:47.898Z,6.80
2019-02-20T00:54:23.078Z,6.80
2019-02-20T00:57:03.623Z,6.90
2019-02-20T00:59:44.528Z,7.00
2019-02-20T01:02:25.209Z,7.10
2019-02-20T01:05:05.925Z,7.20
2019-02-20T01:07:46.681Z,7.10
2019-02-20T01:10:27.739Z,7.10
2019-02-20T01:13:08.690Z,7.10
2019-02-20T01:15:49.110Z,7.10
2019-02-20T01:18:29.650Z,7.10
2019-02-20T01:21:10.234Z,7.20
2019-02-20T01:23:50.904Z,7.20
2019-02-20T01:26:31.708Z,7.20
2019-02-20T01:29:12.185Z,7.20
2019-02-20T01:31:53.017Z,7.20
2019-02-20T01:34:33.896Z,7.20
2019-02-20T01:37:14.419Z,7.20
2019-02-20T01:39:54.902Z,7.20
2019-02-20T01:42:35.602Z,7.10
2019-02-20T01:45:16.245Z,7.00
2019-02-20T01:47:57.296Z,7.10
2019-02-20T01:50:37.681Z,7.10
2019-02-20T01:53:18.385Z,7.10
2019-02-20T01:55:59.236Z,7.10
2019-02-20T01:58:40.514Z,7.00
2019-02-20T02:01:21.254Z,7.00
2019-02-20T02:04:00.599Z,7.00
2019-02-20T02:06:48.577Z,7.10
2019-02-20T02:09:36.837Z,7.20
2019-02-20T02:12:25.093Z,7.20
2019-02-20T02:15:20.018Z,7.30
2019-02-20T02:18:03.325Z,7.20
2019-02-20T02:20:51.692Z,7.30
2019-02-20T02:23:32.779Z,7.40
2019-02-20T02:26:13.884Z,7.30
2019-02-20T02:28:54.682Z,7.30
2019-02-20T02:31:35.374Z,7.40
2019-02-20T02:34:16.408Z,7.50
2019-02-20T02:36:57.141Z,7.50
2019-02-20T02:39:37.972Z,7.40
2019-02-20T02:42:18.840Z,7.40
2019-02-20T02:44:59.522Z,7.40
2019-02-20T02:47:40.327Z,7.50
2019-02-20T02:50:21.078Z,7.40
2019-02-20T02:53:01.932Z,7.30
2019-02-20T02:55:42.551Z,7.30
2019-02-20T02:58:23.634Z,7.40
2019-02-20T03:01:04.543Z,7.40
2019-02-20T03:03:45.419Z,7.30
2019-02-20T03:06:26.386Z,7.20
2019-02-20T03:09:07.313Z,7.30
2019-02-20T03:11:47.982Z,7.30
2019-02-20T03:14:28.517Z,7.30
2019-02-20T03:17:09.408Z,7.30
2019-02-20T03:19:49.820Z,7.20
2019-02-20T03:22:30.716Z,7.20
2019-02-20T03:25:11.546Z,7.20
2019-02-20T03:27:52.267Z,7.00
2019-02-20T03:30:33.144Z,7.00
2019-02-20T03:33:14.165Z,6.90
2019-02-20T03:35:54.923Z,7.00
2019-02-20T03:38:35.682Z,7.00
2019-02-20T03:41:16.481Z,7.00
2019-02-20T03:43:57.273Z,7.00
2019-02-20T03:46:37.935Z,7.00
2019-02-20T03:49:18.510Z,7.00
2019-02-20T03:51:59.218Z,7.00
2019-02-20T03:54:39.759Z,6.90
2019-02-20T03:57:20.422Z,6.90
2019-02-20T04:00:01.381Z,7.00
2019-02-20T04:02:42.121Z,6.90
2019-02-20T04:05:22.975Z,6.90
2019-02-20T04:08:03.519Z,6.90
2019-02-20T04:10:44.272Z,7.00
2019-02-20T04:13:25.164Z,7.00
2019-02-20T04:16:06.190Z,7.00
2019-02-20T04:18:46.771Z,7.00
2019-02-20T04:21:27.442Z,7.20
2019-02-20T04:24:08.191Z,7.20
2019-02-20T04:26:48.779Z,7.30
2019-02-20T04:29:29.683Z,7.20
2019-02-20T04:32:10.235Z,7.40
2019-02-20T04:34:50.903Z,7.40
2019-02-20T04:37:31.953Z,7.40
2019-02-20T04:40:12.527Z,7.50
2019-02-20T04:42:53.183Z,7.40
2019-02-20T04:45:33.757Z,7.50
2019-02-20T04:48:14.826Z,7.60
2019-02-20T04:50:55.497Z,7.60
2019-02-20T04:53:36.315Z,7.60
2019-02-20T04:56:16.856Z,7.70
2019-02-20T04:58:57.525Z,7.70
2019-02-20T05:01:38.642Z,7.70
2019-02-20T05:04:19.211Z,7.60
2019-02-20T05:06:59.938Z,7.60
2019-02-20T05:09:40.374Z,7.60
2019-02-20T05:12:20.724Z,7.70
2019-02-20T05:15:01.311Z,7.70
2019-02-20T05:17:42.154Z,7.50
2019-02-20T05:20:22.879Z,7.50
2019-02-20T05:23:03.574Z,7.50
2019-02-20T05:25:44.398Z,7.50
2019-02-20T05:31:07.600Z,7.30
2019-02-20T05:33:48.392Z,7.20
2019-02-20T05:36:29.166Z,7.30
2019-02-20T05:39:09.888Z,7.20
2019-02-20T05:41:50.654Z,7.20
2019-02-20T05:44:31.482Z,7.40
2019-02-20T05:47:12.148Z,7.30
2019-02-20T05:49:52.925Z,7.40
2019-02-20T05:52:33.348Z,7.50
2019-02-20T05:55:14.157Z,7.50
2019-02-20T05:57:54.723Z,7.50
2019-02-20T06:00:35.646Z,7.40
2019-02-20T06:03:16.303Z,7.40
2019-02-20T06:05:57.106Z,7.40
2019-02-20T06:08:38.047Z,7.30
2019-02-20T06:11:19.200Z,7.40
2019-02-20T06:13:59.940Z,7.40
2019-02-20T06:16:40.724Z,7.50
2019-02-20T06:19:21.502Z,7.40
2019-02-20T06:22:02.527Z,7.40
2019-02-20T06:24:44.308Z,7.50
2019-02-20T06:27:25.413Z,7.40
2019-02-20T06:30:06.145Z,7.40
2019-02-20T06:32:46.600Z,7.40
2019-02-20T06:35:27.234Z,7.50
2019-02-20T06:38:10.787Z,7.50
2019-02-20T06:40:50.958Z,7.50
2019-02-20T06:43:31.647Z,7.40
2019-02-20T06:46:12.280Z,7.40
2019-02-20T06:48:53.010Z,7.50
2019-02-20T06:51:33.778Z,7.60
2019-02-20T06:54:14.811Z,7.50
2019-02-20T06:56:55.341Z,7.50
2019-02-20T06:59:36.182Z,7.60
2019-02-20T07:02:16.745Z,7.70
2019-02-20T07:04:57.326Z,7.60
2019-02-20T07:07:37.875Z,7.60
2019-02-20T07:10:18.643Z,7.70
2019-02-20T07:12:59.169Z,7.60
2019-02-20T07:15:39.607Z,7.60
2019-02-20T07:18:20.183Z,7.70
2019-02-20T07:21:00.798Z,7.70
2019-02-20T07:23:41.828Z,7.60
2019-02-20T07:26:22.650Z,7.60
2019-02-20T07:29:03.278Z,7.60
2019-02-20T07:31:44.045Z,7.60
2019-02-20T07:34:24.770Z,7.60
2019-02-20T07:37:05.458Z,7.70
2019-02-20T07:39:46.430Z,7.70
2019-02-20T07:42:27.243Z,7.70
2019-02-20T07:45:08.007Z,7.60
2019-02-20T07:47:48.718Z,7.60
2019-02-20T07:50:29.407Z,7.80
2019-02-20T07:53:10.158Z,7.80
2019-02-20T07:55:50.863Z,7.80
2019-02-20T07:58:31.514Z,7.80
2019-02-20T08:01:12.414Z,7.80
2019-02-20T08:03:53.184Z,7.80
2019-02-20T08:06:33.955Z,7.90
2019-02-20T08:09:14.515Z,7.90
2019-02-20T08:11:55.174Z,8.00
2019-02-20T08:14:36.016Z,8.00
2019-02-20T08:17:16.895Z,8.00
2019-02-20T08:19:57.742Z,8.00
2019-02-20T08:22:38.478Z,8.00
2019-02-20T08:25:22.899Z,8.10
2019-02-20T08:28:02.150Z,8.10
2019-02-20T08:30:42.813Z,8.20
2019-02-20T08:33:23.248Z,8.20
2019-02-20T08:36:03.931Z,8.10
2019-02-20T08:38:44.811Z,8.10
2019-02-20T08:41:25.382Z,8.20
2019-02-20T08:44:06.072Z,8.20
2019-02-20T08:46:46.747Z,8.30
2019-02-20T08:49:27.416Z,8.40
2019-02-20T08:52:08.169Z,8.50
2019-02-20T08:54:48.973Z,8.50
2019-02-20T08:57:29.758Z,8.70
2019-02-20T09:00:10.863Z,8.70
2019-02-20T09:02:52.106Z,8.90
2019-02-20T09:05:34.250Z,8.90
2019-02-20T09:08:15.065Z,9.00
2019-02-20T09:10:55.475Z,9.00
2019-02-20T09:13:36.326Z,8.90
2019-02-20T09:16:16.695Z,9.10
2019-02-20T09:18:57.899Z,9.10
2019-02-20T09:21:38.567Z,9.00
2019-02-20T09:24:19.075Z,9.00
2019-02-20T09:26:59.790Z,9.10
2019-02-20T09:29:40.651Z,8.90
2019-02-20T09:32:21.258Z,9.00
2019-02-20T09:35:01.967Z,9.20
2019-02-20T09:37:42.623Z,9.10
2019-02-20T09:40:23.473Z,9.10
2019-02-20T09:43:04.303Z,9.10
2019-02-20T09:45:45.166Z,9.10
2019-02-20T09:48:26.033Z,8.90
2019-02-20T09:51:06.785Z,8.80
2019-02-20T09:53:47.746Z,8.90
2019-02-20T09:56:29.000Z,8.90
2019-02-20T09:59:09.842Z,9.00
2019-02-20T10:01:50.622Z,9.00
2019-02-20T10:04:31.511Z,9.00
2019-02-20T10:07:12.368Z,9.20
2019-02-20T10:09:53.032Z,9.50
2019-02-20T10:12:34.031Z,9.50
2019-02-20T10:15:14.741Z,9.50
2019-02-20T10:17:55.776Z,9.70
2019-02-20T10:20:36.174Z,9.60
2019-02-20T10:23:17.110Z,9.60
2019-02-20T10:26:00.987Z,9.70
2019-02-20T10:28:28.745Z,9.80
2019-02-20T10:31:16.762Z,10.00
2019-02-20T10:34:04.746Z,9.80
2019-02-20T10:36:53.031Z,9.90
2019-02-20T10:39:41.042Z,10.00
2019-02-20T10:42:29.034Z,9.80
2019-02-20T10:45:17.382Z,9.80
2019-02-20T10:48:05.458Z,10.00
2019-02-20T10:50:53.722Z,10.20
2019-02-20T10:53:41.720Z,10.10
2019-02-20T10:56:29.731Z,10.10
2019-02-20T11:02:24.820Z,10.10
2019-02-20T11:05:13.062Z,10.20
2019-02-20T11:08:01.049Z,10.10
2019-02-20T11:10:49.078Z,10.30
2019-02-20T11:13:37.338Z,10.40
2019-02-20T11:16:25.723Z,10.60
2019-02-20T11:19:15.601Z,10.70
2019-02-20T11:22:03.914Z,10.40
2019-02-20T11:24:53.709Z,10.40
2019-02-20T11:27:41.605Z,10.60
2019-02-20T11:30:29.651Z,10.50
2019-02-20T11:33:17.646Z,10.50
2019-02-20T11:38:59.523Z,10.60
2019-02-20T11:41:47.871Z,10.80
2019-02-20T11:44:35.862Z,10.80
2019-02-20T11:47:23.866Z,10.70
2019-02-20T11:50:12.210Z,10.90
2019-02-20T11:53:00.197Z,10.90
2019-02-20T11:55:48.182Z,10.80
2019-02-20T11:58:36.425Z,10.90
2019-02-20T12:01:24.679Z,11.00
2019-02-20T12:04:12.646Z,11.10
2019-02-20T12:07:00.642Z,10.90
2019-02-20T12:09:48.632Z,10.70
2019-02-20T12:12:36.611Z,10.60
2019-02-20T12:15:24.899Z,10.60
2019-02-20T12:18:17.395Z,10.80
2019-02-20T12:21:02.957Z,10.80
2019-02-20T12:23:43.772Z,10.80
2019-02-20T12:26:24.895Z,11.00
2019-02-20T12:29:05.655Z,11.00
2019-02-20T12:31:52.298Z,11.00
2019-02-20T12:34:29.138Z,11.00
2019-02-20T12:37:09.966Z,10.90
2019-02-20T12:39:50.490Z,11.10
2019-02-20T12:42:31.957Z,11.20
2019-02-20T12:45:13.079Z,11.30
2019-02-20T12:47:53.531Z,11.30
2019-02-20T12:50:34.143Z,11.00
2019-02-20T12:53:15.184Z,11.20
2019-02-20T12:55:55.516Z,11.50
2019-02-20T12:58:36.236Z,11.30
2019-02-20T13:01:17.046Z,11.30
2019-02-20T13:03:57.803Z,11.20
2019-02-20T13:06:38.603Z,11.10
2019-02-20T13:09:19.321Z,11.10
2019-02-20T13:11:59.828Z,11.40
2019-02-20T13:14:40.655Z,11.50
2019-02-20T13:17:21.319Z,11.60
2019-02-20T13:20:01.743Z,11.60
2019-02-20T13:22:42.260Z,11.60
2019-02-20T13:25:22.897Z,11.50
2019-02-20T13:28:03.640Z,11.20
2019-02-20T13:30:44.056Z,11.10
2019-02-20T13:33:24.804Z,11.20
2019-02-20T13:36:05.555Z,11.30
2019-02-20T13:38:46.553Z,11.40
2019-02-20T13:41:27.235Z,11.60
2019-02-20T13:44:07.864Z,11.70
2019-02-20T13:46:48.587Z,11.70
2019-02-20T13:49:30.000Z,11.60
2019-02-20T13:52:10.588Z,11.50
2019-02-20T13:54:51.446Z,11.40
2019-02-20T13:57:32.464Z,11.40
2019-02-20T14:00:01.692Z,11.30
2019-02-20T14:02:50.242Z,11.30
2019-02-20T14:05:38.483Z,11.30
2019-02-20T14:08:26.840Z,11.30
2019-02-20T14:11:14.892Z,11.30
2019-02-20T14:14:03.234Z,11.30
2019-02-20T14:16:51.309Z,11.40
2019-02-20T14:19:39.355Z,11.40
2019-02-20T14:22:20.794Z,11.40
2019-02-20T14:25:02.767Z,11.40
2019-02-20T14:27:43.551Z,11.20
2019-02-20T14:30:24.247Z,11.30
2019-02-20T14:33:04.943Z,11.40
2019-02-20T14:35:45.536Z,11.40
2019-02-20T14:38:26.011Z,11.40
2019-02-20T14:41:06.719Z,11.40
2019-02-20T14:43:47.310Z,11.30
2019-02-20T14:46:27.744Z,11.40
2019-02-20T14:49:09.474Z,11.20
2019-02-20T14:51:50.227Z,11.00
2019-02-20T14:54:30.857Z,11.00
2019-02-20T14:57:19.172Z,11.10
2019-02-20T14:59:54.288Z,11.10
2019-02-20T15:02:34.635Z,11.10
2019-02-20T15:05:15.349Z,11.10
2019-02-20T15:07:55.710Z,11.20
2019-02-20T15:10:36.216Z,11.30
2019-02-20T15:13:16.687Z,11.10
2019-02-20T15:15:57.705Z,11.00
2019-02-20T15:18:39.071Z,11.10
2019-02-20T15:21:19.971Z,11.20
2019-02-20T15:24:01.052Z,11.20
2019-02-20T15:26:42.043Z,11.10
2019-02-20T15:29:22.919Z,11.10
2019-02-20T15:32:03.917Z,11.20
2019-02-20T15:34:44.353Z,11.30
2019-02-20T15:37:25.368Z,11.20
2019-02-20T15:40:06.503Z,11.30
2019-02-20T15:42:47.035Z,11.30
2019-02-20T15:45:27.578Z,11.40
2019-02-20T15:48:08.679Z,11.20
2019-02-20T15:50:49.787Z,11.20
2019-02-20T15:53:30.860Z,11.30
2019-02-20T15:56:11.849Z,11.20
2019-02-20T15:58:52.667Z,11.20
2019-02-20T16:01:33.197Z,11.10
2019-02-20T16:04:14.284Z,11.10
2019-02-20T16:06:55.584Z,11.10
2019-02-20T16:09:36.326Z,11.10
2019-02-20T16:12:17.247Z,11.00
2019-02-20T16:14:58.636Z,11.10
2019-02-20T16:17:39.391Z,10.90
2019-02-20T16:20:20.653Z,10.90
2019-02-20T16:23:01.000Z,10.80
2019-02-20T16:25:41.751Z,10.80
2019-02-20T16:28:22.232Z,10.80
2019-02-20T16:31:02.833Z,10.70
2019-02-20T16:33:43.347Z,10.70
2019-02-20T16:36:24.147Z,10.80
2019-02-20T16:39:05.326Z,10.80
2019-02-20T16:41:46.088Z,10.80
2019-02-20T16:44:26.690Z,10.90
2019-02-20T16:47:07.838Z,10.90
2019-02-20T16:49:49.160Z,11.00
2019-02-20T16:52:30.311Z,11.10
2019-02-20T16:55:11.084Z,11.00
2019-02-20T16:57:56.775Z,10.90
2019-02-20T17:00:34.228Z,10.80
2019-02-20T17:03:14.962Z,10.90
2019-02-20T17:05:55.459Z,10.90
2019-02-20T17:08:36.071Z,10.80
2019-02-20T17:11:17.479Z,10.80
2019-02-20T17:13:58.270Z,10.80
2019-02-20T17:16:38.623Z,10.70
2019-02-20T17:19:19.161Z,10.70
2019-02-20T17:21:59.899Z,10.70
2019-02-20T17:24:40.561Z,10.50
2019-02-20T17:27:21.407Z,10.50
2019-02-20T17:30:02.124Z,10.50
2019-02-20T17:32:42.995Z,10.60
2019-02-20T17:35:23.806Z,10.60
2019-02-20T17:38:04.205Z,10.60
2019-02-20T17:40:44.775Z,10.40
2019-02-20T17:43:25.327Z,10.10
2019-02-20T17:46:06.056Z,9.90
2019-02-20T17:48:47.216Z,9.70
2019-02-20T17:51:27.878Z,9.60
2019-02-20T17:54:08.634Z,9.60
2019-02-20T17:56:49.511Z,9.60
2019-02-20T17:59:30.893Z,9.60
2019-02-20T18:02:11.393Z,9.60
2019-02-20T18:04:51.931Z,9.60
2019-02-20T18:07:32.780Z,9.60
2019-02-20T18:10:14.054Z,9.60
2019-02-20T18:12:54.559Z,9.50
2019-02-20T18:15:34.927Z,9.60
2019-02-20T18:18:15.512Z,9.70
2019-02-20T18:20:56.987Z,9.50
2019-02-20T18:23:37.927Z,9.30
2019-02-20T18:26:18.510Z,9.20
2019-02-20T18:28:58.873Z,9.10
2019-02-20T18:31:40.332Z,8.90
2019-02-20T18:34:21.037Z,8.90
2019-02-20T18:37:01.953Z,9.00
2019-02-20T18:39:42.653Z,8.80
2019-02-20T18:42:23.627Z,8.90
2019-02-20T18:45:04.729Z,8.80
2019-02-20T18:47:45.689Z,8.70
2019-02-20T18:50:27.902Z,8.80
2019-02-20T18:53:08.983Z,8.80
2019-02-20T18:55:49.491Z,8.70
2019-02-20T18:58:33.952Z,8.60
2019-02-20T19:01:13.809Z,8.60
2019-02-20T19:03:56.718Z,8.60
2019-02-20T19:06:37.296Z,8.60
2019-02-20T19:09:17.792Z,8.50
2019-02-20T19:11:58.439Z,8.50
2019-02-20T19:14:39.046Z,8.50
2019-02-20T19:17:19.626Z,8.40
2019-02-20T19:20:00.349Z,8.30
2019-02-20T19:22:40.928Z,8.30
2019-02-20T19:25:21.295Z,8.20
2019-02-20T19:28:02.048Z,8.20
2019-02-20T19:30:42.806Z,8.10
2019-02-20T19:33:23.390Z,8.10
2019-02-20T19:36:03.760Z,8.20
2019-02-20T19:38:45.007Z,8.20
2019-02-20T19:41:25.561Z,8.20
2019-02-20T19:44:06.406Z,8.30
2019-02-20T19:46:47.017Z,8.40
2019-02-20T19:49:27.594Z,8.50
2019-02-20T19:52:08.250Z,8.50
2019-02-20T19:54:49.021Z,8.50
2019-02-20T19:57:29.804Z,8.50
2019-02-20T20:00:10.492Z,8.50
2019-02-20T20:02:51.635Z,8.50
2019-02-20T20:05:32.619Z,8.50
2019-02-20T20:08:13.253Z,8.50
2019-02-20T20:10:54.298Z,8.40
2019-02-20T20:13:34.918Z,8.40
2019-02-20T20:16:17.546Z,8.40
2019-02-20T20:18:58.370Z,8.40
2019-02-20T20:21:39.133Z,8.30
2019-02-20T20:24:22.606Z,8.20
2019-02-20T20:27:02.743Z,8.20
2019-02-20T20:29:43.451Z,8.20
2019-02-20T20:32:24.379Z,8.00
2019-02-20T20:35:05.611Z,8.00
2019-02-20T20:37:46.639Z,8.10
2019-02-20T20:40:27.862Z,8.00
2019-02-20T20:43:08.832Z,7.90
2019-02-20T20:45:49.723Z,7.80
2019-02-20T20:48:30.242Z,7.70
2019-02-20T20:51:11.144Z,7.70
2019-02-20T20:53:51.983Z,7.60
2019-02-20T20:56:32.588Z,7.70
2019-02-20T20:59:17.466Z,7.70
2019-02-20T21:01:56.239Z,7.70
2019-02-20T21:04:37.118Z,7.70
2019-02-20T21:07:17.848Z,7.70
2019-02-20T21:09:58.831Z,7.80
2019-02-20T21:12:39.472Z,7.80
2019-02-20T21:15:20.231Z,7.90
2019-02-20T21:18:01.262Z,8.00
2019-02-20T21:20:41.964Z,8.00
2019-02-20T21:23:49.183Z,8.00
2019-02-20T21:26:56.397Z,8.00
2019-02-20T21:30:03.707Z,8.00
2019-02-20T21:33:17.944Z,7.90
2019-02-20T21:36:25.387Z,8.00
2019-02-20T21:39:17.263Z,8.10
2019-02-20T21:42:09.152Z,8.00
2019-02-20T21:45:16.603Z,7.90
2019-02-20T21:48:23.799Z,7.90
2019-02-20T21:51:31.282Z,7.80
2019-02-20T21:54:38.792Z,7.80
2019-02-20T21:57:45.991Z,7.70
2019-02-20T22:00:53.214Z,7.70
2019-02-20T22:04:00.414Z,7.70
2019-02-20T22:07:07.631Z,7.70
2019-02-20T22:10:14.870Z,7.70
2019-02-20T22:13:22.074Z,7.60
2019-02-20T22:16:29.735Z,7.70
2019-02-20T22:19:37.184Z,7.70
2019-02-20T22:22:44.403Z,7.70
2019-02-20T22:25:25.100Z,7.80
2019-02-20T22:28:05.635Z,7.80
2019-02-20T22:30:46.115Z,7.80
2019-02-20T22:33:26.887Z,7.90
2019-02-20T22:36:07.698Z,7.90
2019-02-20T22:38:48.924Z,8.00
2019-02-20T22:41:29.411Z,8.10
2019-02-20T22:44:10.403Z,8.10
2019-02-20T22:49:47.401Z,8.20
2019-02-20T22:52:27.807Z,8.20
2019-02-20T22:55:08.628Z,8.30
2019-02-20T22:57:49.579Z,8.20
2019-02-20T23:00:34.620Z,8.20
2019-02-20T23:03:14.573Z,8.10
2019-02-20T23:05:55.489Z,8.00
2019-02-20T23:08:36.520Z,8.00
2019-02-20T23:11:17.197Z,8.00
2019-02-20T23:13:58.046Z,8.10
2019-02-20T23:16:38.939Z,8.00
2019-02-20T23:19:19.591Z,8.00
2019-02-20T23:22:00.171Z,7.90
2019-02-20T23:24:42.075Z,7.90
2019-02-20T23:27:22.523Z,7.90
2019-02-20T23:30:12.571Z,7.80
2019-02-20T23:32:46.052Z,7.80
2019-02-20T23:35:26.726Z,7.80
2019-02-20T23:38:07.930Z,7.80
2019-02-20T23:40:49.118Z,7.70
2019-02-20T23:43:29.547Z,7.70
2019-02-20T23:46:10.531Z,7.60
2019-02-20T23:48:50.922Z,7.70
2019-02-20T23:51:31.434Z,7.70
2019-02-20T23:54:12.891Z,7.80
2019-02-20T23:56:53.601Z,7.80
2019-02-20T23:59:34.257Z,7.80
